sensor_id;sensor_type;location;lat;lon;timestamp;pressure;altitude;pressure_sealevel;temperature;humidity
33414;BME280;60055;41.884;12.534;2023-03-16T00:00:52;100864.47;;;10.58;47.86
33414;BME280;60055;41.884;12.534;2023-03-16T00:03:17;100877.13;;;10.48;47.22
33414;BME280;60055;41.884;12.534;2023-03-16T00:05:47;100876.88;;;10.56;47.23
33414;BME280;60055;41.884;12.534;2023-03-16T00:08:15;100891.59;;;10.37;47.51
33414;BME280;60055;41.884;12.534;2023-03-16T00:10:41;100881.25;;;10.31;47.77
33414;BME280;60055;41.884;12.534;2023-03-16T00:13:19;100883.53;;;10.13;47.75
33414;BME280;60055;41.884;12.534;2023-03-16T00:15:58;100880.72;;;10.19;47.85
33414;BME280;60055;41.884;12.534;2023-03-16T00:18:26;100889.94;;;10.05;48.57
33414;BME280;60055;41.884;12.534;2023-03-16T00:20:57;100881.91;;;10.09;48.35
33414;BME280;60055;41.884;12.534;2023-03-16T00:23:23;100881.00;;;10.10;48.45
33414;BME280;60055;41.884;12.534;2023-03-16T00:26:02;100882.94;;;10.04;48.46
33414;BME280;60055;41.884;12.534;2023-03-16T00:28:30;100882.19;;;10.00;48.19
33414;BME280;60055;41.884;12.534;2023-03-16T00:31:04;100887.19;;;10.09;48.35
33414;BME280;60055;41.884;12.534;2023-03-16T00:33:30;100879.56;;;10.00;48.30
33414;BME280;60055;41.884;12.534;2023-03-16T00:36:02;100891.00;;;9.99;48.95
33414;BME280;60055;41.884;12.534;2023-03-16T00:38:31;100887.53;;;9.97;48.09
33414;BME280;60055;41.884;12.534;2023-03-16T00:40:56;100896.63;;;9.89;48.68
33414;BME280;60055;41.884;12.534;2023-03-16T00:43:22;100893.00;;;9.91;48.12
33414;BME280;60055;41.884;12.534;2023-03-16T00:45:47;100889.75;;;9.83;48.86
33414;BME280;60055;41.884;12.534;2023-03-16T00:48:13;100892.25;;;9.88;48.84
33414;BME280;60055;41.884;12.534;2023-03-16T00:50:39;100890.53;;;9.87;48.24
33414;BME280;60055;41.884;12.534;2023-03-16T00:53:04;100889.81;;;9.80;48.67
33414;BME280;60055;41.884;12.534;2023-03-16T00:55:30;100892.44;;;9.82;48.73
33414;BME280;60055;41.884;12.534;2023-03-16T00:57:56;100892.72;;;9.72;48.99
33414;BME280;60055;41.884;12.534;2023-03-16T01:00:22;100901.31;;;9.79;49.12
33414;BME280;60055;41.884;12.534;2023-03-16T01:02:50;100892.53;;;9.79;48.67
33414;BME280;60055;41.884;12.534;2023-03-16T01:05:16;100890.97;;;9.71;49.01
33414;BME280;60055;41.884;12.534;2023-03-16T01:07:42;100890.75;;;9.79;49.60
33414;BME280;60055;41.884;12.534;2023-03-16T01:10:09;100886.66;;;9.69;49.75
33414;BME280;60055;41.884;12.534;2023-03-16T01:12:35;100884.13;;;9.94;48.68
33414;BME280;60055;41.884;12.534;2023-03-16T01:15:00;100886.50;;;9.73;49.14
33414;BME280;60055;41.884;12.534;2023-03-16T01:17:26;100884.03;;;9.69;49.04
33414;BME280;60055;41.884;12.534;2023-03-16T01:19:52;100884.75;;;9.74;49.16
33414;BME280;60055;41.884;12.534;2023-03-16T01:22:18;100881.50;;;9.66;49.23
33414;BME280;60055;41.884;12.534;2023-03-16T01:24:44;100881.91;;;9.80;48.81
33414;BME280;60055;41.884;12.534;2023-03-16T01:27:10;100887.78;;;9.60;49.06
33414;BME280;60055;41.884;12.534;2023-03-16T01:29:37;100888.38;;;9.70;49.33
33414;BME280;60055;41.884;12.534;2023-03-16T01:32:04;100870.47;;;9.81;49.78
33414;BME280;60055;41.884;12.534;2023-03-16T01:34:30;100876.13;;;9.69;48.66
33414;BME280;60055;41.884;12.534;2023-03-16T01:36:56;100869.34;;;9.60;48.82
33414;BME280;60055;41.884;12.534;2023-03-16T01:39:21;100872.13;;;9.56;48.97
33414;BME280;60055;41.884;12.534;2023-03-16T01:41:47;100866.69;;;9.31;48.82
33414;BME280;60055;41.884;12.534;2023-03-16T01:44:19;100876.19;;;9.37;49.70
33414;BME280;60055;41.884;12.534;2023-03-16T01:46:47;100865.22;;;9.21;48.53
33414;BME280;60055;41.884;12.534;2023-03-16T01:49:55;100862.09;;;9.38;49.79
33414;BME280;60055;41.884;12.534;2023-03-16T01:52:18;100861.81;;;9.17;48.66
33414;BME280;60055;41.884;12.534;2023-03-16T01:55:05;100868.47;;;9.31;48.94
33414;BME280;60055;41.884;12.534;2023-03-16T01:57:35;100865.00;;;9.29;50.08
33414;BME280;60055;41.884;12.534;2023-03-16T02:02:37;100873.41;;;9.43;47.27
33414;BME280;60055;41.884;12.534;2023-03-16T02:07:40;100878.56;;;9.46;47.33
33414;BME280;60055;41.884;12.534;2023-03-16T02:10:08;100867.59;;;9.30;46.70
33414;BME280;60055;41.884;12.534;2023-03-16T02:12:33;100867.47;;;9.35;48.38
33414;BME280;60055;41.884;12.534;2023-03-16T02:15:00;100868.84;;;9.17;46.75
33414;BME280;60055;41.884;12.534;2023-03-16T02:17:28;100872.25;;;9.20;46.68
33414;BME280;60055;41.884;12.534;2023-03-16T02:22:41;100876.16;;;9.07;46.13
33414;BME280;60055;41.884;12.534;2023-03-16T02:25:09;100880.09;;;8.91;46.42
33414;BME280;60055;41.884;12.534;2023-03-16T02:30:17;100889.97;;;9.15;45.95
33414;BME280;60055;41.884;12.534;2023-03-16T02:32:45;100879.72;;;9.05;45.83
33414;BME280;60055;41.884;12.534;2023-03-16T02:35:12;100888.03;;;8.90;46.17
33414;BME280;60055;41.884;12.534;2023-03-16T02:37:39;100890.16;;;8.76;45.77
33414;BME280;60055;41.884;12.534;2023-03-16T02:40:36;100888.72;;;8.96;46.50
33414;BME280;60055;41.884;12.534;2023-03-16T02:43:06;100882.53;;;8.99;46.09
33414;BME280;60055;41.884;12.534;2023-03-16T02:45:51;100884.03;;;9.09;45.25
33414;BME280;60055;41.884;12.534;2023-03-16T02:48:23;100881.91;;;8.89;45.69
33414;BME280;60055;41.884;12.534;2023-03-16T02:50:51;100880.03;;;8.94;45.61
33414;BME280;60055;41.884;12.534;2023-03-16T02:53:18;100885.38;;;8.91;45.20
33414;BME280;60055;41.884;12.534;2023-03-16T02:55:44;100882.03;;;8.85;45.41
33414;BME280;60055;41.884;12.534;2023-03-16T02:58:10;100880.72;;;9.01;44.48
33414;BME280;60055;41.884;12.534;2023-03-16T03:00:36;100883.88;;;9.13;44.76
33414;BME280;60055;41.884;12.534;2023-03-16T03:03:03;100889.31;;;9.07;44.20
33414;BME280;60055;41.884;12.534;2023-03-16T03:05:29;100880.53;;;9.07;43.94
33414;BME280;60055;41.884;12.534;2023-03-16T03:07:54;100887.63;;;9.05;42.61
33414;BME280;60055;41.884;12.534;2023-03-16T03:10:21;100891.38;;;9.29;43.16
33414;BME280;60055;41.884;12.534;2023-03-16T03:12:46;100892.94;;;9.03;43.28
33414;BME280;60055;41.884;12.534;2023-03-16T03:15:14;100889.50;;;9.00;43.58
33414;BME280;60055;41.884;12.534;2023-03-16T03:17:39;100904.16;;;9.10;44.11
33414;BME280;60055;41.884;12.534;2023-03-16T03:20:08;100898.09;;;9.08;44.87
33414;BME280;60055;41.884;12.534;2023-03-16T03:22:45;100903.78;;;9.23;44.77
33414;BME280;60055;41.884;12.534;2023-03-16T03:25:14;100908.50;;;9.12;44.48
33414;BME280;60055;41.884;12.534;2023-03-16T03:27:41;100903.56;;;9.33;47.15
33414;BME280;60055;41.884;12.534;2023-03-16T03:30:09;100910.31;;;8.78;44.88
33414;BME280;60055;41.884;12.534;2023-03-16T03:32:35;100906.09;;;9.03;44.14
33414;BME280;60055;41.884;12.534;2023-03-16T03:35:00;100896.72;;;9.26;45.47
33414;BME280;60055;41.884;12.534;2023-03-16T03:37:26;100904.84;;;9.16;44.83
33414;BME280;60055;41.884;12.534;2023-03-16T03:39:51;100909.94;;;9.24;45.11
33414;BME280;60055;41.884;12.534;2023-03-16T03:42:17;100919.00;;;9.14;44.70
33414;BME280;60055;41.884;12.534;2023-03-16T03:44:45;100919.97;;;9.42;44.38
33414;BME280;60055;41.884;12.534;2023-03-16T03:47:10;100922.22;;;9.56;44.13
33414;BME280;60055;41.884;12.534;2023-03-16T03:49:35;100924.88;;;9.54;43.31
33414;BME280;60055;41.884;12.534;2023-03-16T03:52:01;100923.81;;;9.60;43.27
33414;BME280;60055;41.884;12.534;2023-03-16T03:54:29;100934.84;;;9.74;43.09
33414;BME280;60055;41.884;12.534;2023-03-16T03:56:54;100935.19;;;9.93;42.11
33414;BME280;60055;41.884;12.534;2023-03-16T03:59:20;100934.22;;;9.95;42.24
33414;BME280;60055;41.884;12.534;2023-03-16T04:01:46;100936.53;;;10.06;43.71
33414;BME280;60055;41.884;12.534;2023-03-16T04:04:13;100938.50;;;9.99;41.62
33414;BME280;60055;41.884;12.534;2023-03-16T04:06:40;100954.13;;;9.76;41.54
33414;BME280;60055;41.884;12.534;2023-03-16T04:09:06;100943.63;;;9.74;42.37
33414;BME280;60055;41.884;12.534;2023-03-16T04:11:31;100951.63;;;9.71;42.36
33414;BME280;60055;41.884;12.534;2023-03-16T04:13:56;100947.72;;;9.85;42.22
33414;BME280;60055;41.884;12.534;2023-03-16T04:16:22;100936.06;;;9.93;42.92
33414;BME280;60055;41.884;12.534;2023-03-16T04:18:54;100939.91;;;9.82;41.99
33414;BME280;60055;41.884;12.534;2023-03-16T04:21:20;100940.78;;;9.82;43.91
33414;BME280;60055;41.884;12.534;2023-03-16T04:23:47;100940.56;;;9.28;42.39
33414;BME280;60055;41.884;12.534;2023-03-16T04:26:14;100957.09;;;9.33;43.62
33414;BME280;60055;41.884;12.534;2023-03-16T04:28:39;100953.03;;;9.21;42.89
33414;BME280;60055;41.884;12.534;2023-03-16T04:31:07;100953.94;;;9.53;46.77
33414;BME280;60055;41.884;12.534;2023-03-16T04:33:34;100955.03;;;9.44;43.33
33414;BME280;60055;41.884;12.534;2023-03-16T04:35:59;100968.72;;;9.58;47.09
33414;BME280;60055;41.884;12.534;2023-03-16T04:38:27;100956.28;;;9.31;45.06
33414;BME280;60055;41.884;12.534;2023-03-16T04:40:54;100955.94;;;9.43;45.30
33414;BME280;60055;41.884;12.534;2023-03-16T04:43:19;100960.59;;;9.66;44.02
33414;BME280;60055;41.884;12.534;2023-03-16T04:45:45;100961.38;;;9.37;42.78
33414;BME280;60055;41.884;12.534;2023-03-16T04:48:10;100964.38;;;9.23;42.68
33414;BME280;60055;41.884;12.534;2023-03-16T04:50:36;100964.91;;;9.04;42.85
33414;BME280;60055;41.884;12.534;2023-03-16T04:53:01;100970.97;;;9.07;43.23
33414;BME280;60055;41.884;12.534;2023-03-16T04:55:28;100976.50;;;9.31;43.54
33414;BME280;60055;41.884;12.534;2023-03-16T04:57:53;100977.09;;;9.40;42.63
33414;BME280;60055;41.884;12.534;2023-03-16T05:00:19;100975.19;;;9.14;42.36
33414;BME280;60055;41.884;12.534;2023-03-16T05:02:49;100983.38;;;9.02;42.90
33414;BME280;60055;41.884;12.534;2023-03-16T05:05:16;100975.38;;;9.07;42.75
33414;BME280;60055;41.884;12.534;2023-03-16T05:07:43;100976.16;;;9.10;43.08
33414;BME280;60055;41.884;12.534;2023-03-16T05:10:09;100976.25;;;9.06;42.68
33414;BME280;60055;41.884;12.534;2023-03-16T05:12:35;100976.47;;;8.98;42.64
33414;BME280;60055;41.884;12.534;2023-03-16T05:15:00;100973.06;;;8.95;43.12
33414;BME280;60055;41.884;12.534;2023-03-16T05:17:26;100978.84;;;8.75;43.48
33414;BME280;60055;41.884;12.534;2023-03-16T05:19:51;100977.47;;;8.93;43.54
33414;BME280;60055;41.884;12.534;2023-03-16T05:22:17;100979.91;;;9.02;42.07
33414;BME280;60055;41.884;12.534;2023-03-16T05:24:43;100982.53;;;9.02;41.91
33414;BME280;60055;41.884;12.534;2023-03-16T05:27:08;100978.44;;;8.90;41.86
33414;BME280;60055;41.884;12.534;2023-03-16T05:29:33;100983.69;;;8.90;42.16
33414;BME280;60055;41.884;12.534;2023-03-16T05:31:59;100981.75;;;8.98;41.68
33414;BME280;60055;41.884;12.534;2023-03-16T05:34:25;100982.47;;;9.03;41.38
33414;BME280;60055;41.884;12.534;2023-03-16T05:36:50;100983.31;;;9.05;41.60
33414;BME280;60055;41.884;12.534;2023-03-16T05:39:16;100988.88;;;8.95;42.48
33414;BME280;60055;41.884;12.534;2023-03-16T05:41:42;100982.47;;;9.05;41.13
33414;BME280;60055;41.884;12.534;2023-03-16T05:44:08;100988.94;;;9.26;40.88
33414;BME280;60055;41.884;12.534;2023-03-16T05:46:33;100988.34;;;9.47;40.73
33414;BME280;60055;41.884;12.534;2023-03-16T05:48:59;101003.59;;;9.36;40.22
33414;BME280;60055;41.884;12.534;2023-03-16T05:51:24;101000.00;;;9.38;40.52
33414;BME280;60055;41.884;12.534;2023-03-16T05:53:53;100999.97;;;9.40;40.32
33414;BME280;60055;41.884;12.534;2023-03-16T05:56:23;101001.69;;;9.41;39.79
33414;BME280;60055;41.884;12.534;2023-03-16T05:58:51;101013.63;;;9.54;39.40
33414;BME280;60055;41.884;12.534;2023-03-16T06:01:19;101014.59;;;9.51;39.09
33414;BME280;60055;41.884;12.534;2023-03-16T06:03:46;101023.31;;;9.53;38.79
33414;BME280;60055;41.884;12.534;2023-03-16T06:08:53;101021.00;;;10.04;38.68
33414;BME280;60055;41.884;12.534;2023-03-16T06:11:19;101028.19;;;9.99;38.78
33414;BME280;60055;41.884;12.534;2023-03-16T06:13:44;101034.38;;;9.98;40.22
33414;BME280;60055;41.884;12.534;2023-03-16T06:16:10;101033.59;;;9.95;37.81
33414;BME280;60055;41.884;12.534;2023-03-16T06:18:37;101035.53;;;9.88;38.02
33414;BME280;60055;41.884;12.534;2023-03-16T06:21:03;101048.16;;;9.77;38.31
33414;BME280;60055;41.884;12.534;2023-03-16T06:23:29;101051.94;;;9.99;37.76
33414;BME280;60055;41.884;12.534;2023-03-16T06:25:55;101047.00;;;10.18;37.88
33414;BME280;60055;41.884;12.534;2023-03-16T06:28:21;101058.25;;;10.82;45.58
33414;BME280;60055;41.884;12.534;2023-03-16T06:30:47;101057.78;;;10.97;37.70
33414;BME280;60055;41.884;12.534;2023-03-16T06:33:12;101052.09;;;11.35;39.81
33414;BME280;60055;41.884;12.534;2023-03-16T06:35:38;101058.88;;;11.16;36.70
33414;BME280;60055;41.884;12.534;2023-03-16T06:38:03;101063.75;;;11.02;37.31
33414;BME280;60055;41.884;12.534;2023-03-16T06:40:29;101062.25;;;11.21;37.37
33414;BME280;60055;41.884;12.534;2023-03-16T06:42:55;101068.31;;;11.24;38.38
33414;BME280;60055;41.884;12.534;2023-03-16T06:45:20;101073.44;;;11.29;36.67
33414;BME280;60055;41.884;12.534;2023-03-16T06:47:47;101078.56;;;11.34;38.51
33414;BME280;60055;41.884;12.534;2023-03-16T06:50:12;101079.13;;;11.17;36.78
33414;BME280;60055;41.884;12.534;2023-03-16T06:52:38;101077.72;;;11.05;37.31
33414;BME280;60055;41.884;12.534;2023-03-16T06:55:03;101085.50;;;11.11;37.09
33414;BME280;60055;41.884;12.534;2023-03-16T06:57:29;101083.50;;;11.18;38.14
33414;BME280;60055;41.884;12.534;2023-03-16T06:59:56;101083.94;;;11.32;36.61
33414;BME280;60055;41.884;12.534;2023-03-16T07:02:29;101080.97;;;11.41;35.81
33414;BME280;60055;41.884;12.534;2023-03-16T07:24:53;101100.22;;;12.89;32.95
33414;BME280;60055;41.884;12.534;2023-03-16T08:15:18;101144.69;;;14.09;30.31
33414;BME280;60055;41.884;12.534;2023-03-16T08:18:02;101146.25;;;13.95;30.35
33414;BME280;60055;41.884;12.534;2023-03-16T08:20:41;101141.25;;;14.27;30.67
33414;BME280;60055;41.884;12.534;2023-03-16T08:23:09;101146.50;;;14.68;29.95
33414;BME280;60055;41.884;12.534;2023-03-16T08:25:42;101150.69;;;14.14;30.34
33414;BME280;60055;41.884;12.534;2023-03-16T08:31:51;101159.06;;;14.46;29.58
33414;BME280;60055;41.884;12.534;2023-03-16T08:34:29;101161.81;;;14.63;29.11
33414;BME280;60055;41.884;12.534;2023-03-16T08:36:58;101172.81;;;14.74;29.09
33414;BME280;60055;41.884;12.534;2023-03-16T08:42:00;101164.28;;;14.86;28.94
33414;BME280;60055;41.884;12.534;2023-03-16T08:47:13;101164.84;;;14.35;28.76
33414;BME280;60055;41.884;12.534;2023-03-16T08:49:40;101167.81;;;14.48;28.66
33414;BME280;60055;41.884;12.534;2023-03-16T08:52:06;101176.72;;;14.47;28.55
33414;BME280;60055;41.884;12.534;2023-03-16T08:54:34;101172.69;;;14.96;28.54
33414;BME280;60055;41.884;12.534;2023-03-16T08:57:15;101170.94;;;15.51;27.67
33414;BME280;60055;41.884;12.534;2023-03-16T08:59:47;101180.53;;;15.34;26.91
33414;BME280;60055;41.884;12.534;2023-03-16T09:02:13;101165.78;;;15.46;26.21
33414;BME280;60055;41.884;12.534;2023-03-16T09:04:39;101174.19;;;15.20;26.20
33414;BME280;60055;41.884;12.534;2023-03-16T09:30:11;101178.16;;;15.83;22.00
33414;BME280;60055;41.884;12.534;2023-03-16T09:32:53;101172.22;;;15.78;22.62
33414;BME280;60055;41.884;12.534;2023-03-16T09:47:09;101174.72;;;15.81;18.47
33414;BME280;60055;41.884;12.534;2023-03-16T09:49:42;101176.06;;;16.07;19.53
33414;BME280;60055;41.884;12.534;2023-03-16T09:59:17;101183.28;;;16.22;20.82
33414;BME280;60055;41.884;12.534;2023-03-16T10:28:23;101181.78;;;16.16;16.99
33414;BME280;60055;41.884;12.534;2023-03-16T10:33:57;101186.81;;;15.88;17.49
33414;BME280;60055;41.884;12.534;2023-03-16T10:47:02;101178.88;;;16.21;17.24
33414;BME280;60055;41.884;12.534;2023-03-16T10:53:45;101181.00;;;16.14;16.72
33414;BME280;60055;41.884;12.534;2023-03-16T10:56:24;101178.78;;;16.22;17.69
33414;BME280;60055;41.884;12.534;2023-03-16T11:02:19;101176.63;;;16.46;16.94
33414;BME280;60055;41.884;12.534;2023-03-16T11:08:24;101195.59;;;16.74;19.46
33414;BME280;60055;41.884;12.534;2023-03-16T11:10:58;101185.78;;;16.75;21.57
33414;BME280;60055;41.884;12.534;2023-03-16T11:13:34;101184.38;;;16.68;16.75
33414;BME280;60055;41.884;12.534;2023-03-16T11:18:33;101187.31;;;16.29;17.04
33414;BME280;60055;41.884;12.534;2023-03-16T11:23:51;101180.84;;;16.17;17.54
33414;BME280;60055;41.884;12.534;2023-03-16T11:26:30;101183.81;;;16.28;17.03
33414;BME280;60055;41.884;12.534;2023-03-16T11:32:14;101185.06;;;16.39;17.37
33414;BME280;60055;41.884;12.534;2023-03-16T11:34:43;101181.53;;;16.38;17.81
33414;BME280;60055;41.884;12.534;2023-03-16T11:37:27;101183.81;;;16.28;17.72
33414;BME280;60055;41.884;12.534;2023-03-16T11:40:09;101180.44;;;16.25;17.73
33414;BME280;60055;41.884;12.534;2023-03-16T11:45:40;101178.94;;;16.36;18.01
33414;BME280;60055;41.884;12.534;2023-03-16T11:54:28;101176.22;;;16.54;16.77
33414;BME280;60055;41.884;12.534;2023-03-16T11:57:05;101178.28;;;16.49;17.62
33414;BME280;60055;41.884;12.534;2023-03-16T11:59:38;101171.34;;;16.79;20.18
33414;BME280;60055;41.884;12.534;2023-03-16T12:08:16;101169.50;;;16.64;17.64
33414;BME280;60055;41.884;12.534;2023-03-16T12:10:57;101166.78;;;16.81;18.37
33414;BME280;60055;41.884;12.534;2023-03-16T12:16:39;101159.13;;;16.75;17.87
33414;BME280;60055;41.884;12.534;2023-03-16T12:19:28;101155.22;;;16.48;17.94
33414;BME280;60055;41.884;12.534;2023-03-16T12:22:28;101152.38;;;16.68;17.61
33414;BME280;60055;41.884;12.534;2023-03-16T12:24:57;101159.13;;;16.91;17.97
33414;BME280;60055;41.884;12.534;2023-03-16T12:27:27;101157.38;;;16.74;18.01
33414;BME280;60055;41.884;12.534;2023-03-16T12:38:05;101146.13;;;17.00;18.52
33414;BME280;60055;41.884;12.534;2023-03-16T12:40:47;101150.94;;;16.94;17.50
33414;BME280;60055;41.884;12.534;2023-03-16T12:46:02;101140.09;;;17.59;20.13
33414;BME280;60055;41.884;12.534;2023-03-16T12:48:34;101146.13;;;17.47;17.24
33414;BME280;60055;41.884;12.534;2023-03-16T12:51:03;101138.28;;;17.60;18.87
33414;BME280;60055;41.884;12.534;2023-03-16T12:54:02;101127.97;;;17.83;19.60
33414;BME280;60055;41.884;12.534;2023-03-16T12:56:35;101126.69;;;18.33;19.59
33414;BME280;60055;41.884;12.534;2023-03-16T12:59:15;101125.28;;;18.56;17.60
33414;BME280;60055;41.884;12.534;2023-03-16T13:01:44;101125.38;;;18.40;17.72
33414;BME280;60055;41.884;12.534;2023-03-16T13:04:34;101122.69;;;17.82;17.63
33414;BME280;60055;41.884;12.534;2023-03-16T13:07:23;101127.53;;;17.91;17.31
33414;BME280;60055;41.884;12.534;2023-03-16T13:09:55;101119.53;;;18.19;17.18
33414;BME280;60055;41.884;12.534;2023-03-16T13:12:29;101116.09;;;18.17;17.44
33414;BME280;60055;41.884;12.534;2023-03-16T13:14:59;101116.63;;;18.08;18.49
33414;BME280;60055;41.884;12.534;2023-03-16T13:17:30;101107.41;;;18.42;16.45
33414;BME280;60055;41.884;12.534;2023-03-16T13:20:00;101114.91;;;18.65;16.70
33414;BME280;60055;41.884;12.534;2023-03-16T13:22:39;101112.28;;;18.92;16.43
33414;BME280;60055;41.884;12.534;2023-03-16T13:27:46;101105.38;;;18.03;17.37
33414;BME280;60055;41.884;12.534;2023-03-16T13:32:44;101108.09;;;18.31;17.34
33414;BME280;60055;41.884;12.534;2023-03-16T13:35:13;101103.50;;;18.19;17.46
33414;BME280;60055;41.884;12.534;2023-03-16T13:37:41;101091.03;;;17.76;17.90
33414;BME280;60055;41.884;12.534;2023-03-16T13:40:25;101091.81;;;17.92;17.92
33414;BME280;60055;41.884;12.534;2023-03-16T13:42:56;101076.34;;;17.83;17.62
33414;BME280;60055;41.884;12.534;2023-03-16T13:45:32;101080.44;;;17.88;17.84
33414;BME280;60055;41.884;12.534;2023-03-16T13:48:01;101085.38;;;17.51;18.52
33414;BME280;60055;41.884;12.534;2023-03-16T13:50:31;101081.06;;;17.64;19.14
33414;BME280;60055;41.884;12.534;2023-03-16T13:52:59;101083.66;;;17.65;18.33
33414;BME280;60055;41.884;12.534;2023-03-16T13:55:34;101086.06;;;17.70;18.94
33414;BME280;60055;41.884;12.534;2023-03-16T13:58:00;101083.13;;;17.88;18.33
33414;BME280;60055;41.884;12.534;2023-03-16T14:00:30;101084.69;;;18.21;18.10
33414;BME280;60055;41.884;12.534;2023-03-16T14:03:02;101081.59;;;17.99;18.13
33414;BME280;60055;41.884;12.534;2023-03-16T14:05:39;101090.94;;;17.92;19.13
33414;BME280;60055;41.884;12.534;2023-03-16T14:08:30;101090.75;;;17.95;18.08
33414;BME280;60055;41.884;12.534;2023-03-16T14:21:33;101082.19;;;17.90;17.75
33414;BME280;60055;41.884;12.534;2023-03-16T14:40:52;101077.66;;;17.76;18.55
33414;BME280;60055;41.884;12.534;2023-03-16T14:54:29;101070.88;;;17.70;17.91
33414;BME280;60055;41.884;12.534;2023-03-16T15:05:23;101082.72;;;16.90;20.96
33414;BME280;60055;41.884;12.534;2023-03-16T15:07:53;101081.16;;;16.70;20.85
33414;BME280;60055;41.884;12.534;2023-03-16T15:10:23;101075.00;;;16.69;21.29
33414;BME280;60055;41.884;12.534;2023-03-16T15:12:49;101084.50;;;16.73;21.75
33414;BME280;60055;41.884;12.534;2023-03-16T15:15:20;101089.44;;;16.65;22.08
33414;BME280;60055;41.884;12.534;2023-03-16T15:17:49;101085.91;;;16.65;21.77
33414;BME280;60055;41.884;12.534;2023-03-16T15:20:38;101091.50;;;16.43;22.34
33414;BME280;60055;41.884;12.534;2023-03-16T15:23:04;101094.44;;;16.54;22.93
33414;BME280;60055;41.884;12.534;2023-03-16T15:25:37;101089.69;;;16.44;22.74
33414;BME280;60055;41.884;12.534;2023-03-16T15:28:17;101087.72;;;16.31;23.07
33414;BME280;60055;41.884;12.534;2023-03-16T15:30:44;101085.22;;;16.28;23.72
33414;BME280;60055;41.884;12.534;2023-03-16T15:33:11;101085.38;;;16.25;23.32
33414;BME280;60055;41.884;12.534;2023-03-16T15:35:37;101091.34;;;16.13;23.90
33414;BME280;60055;41.884;12.534;2023-03-16T15:38:14;101087.25;;;16.23;23.92
33414;BME280;60055;41.884;12.534;2023-03-16T15:40:41;101087.34;;;16.22;24.34
33414;BME280;60055;41.884;12.534;2023-03-16T15:43:16;101088.69;;;16.13;24.16
33414;BME280;60055;41.884;12.534;2023-03-16T15:45:43;101087.59;;;16.17;23.80
33414;BME280;60055;41.884;12.534;2023-03-16T15:48:26;101092.91;;;16.17;23.70
33414;BME280;60055;41.884;12.534;2023-03-16T15:50:54;101091.19;;;16.16;23.49
33414;BME280;60055;41.884;12.534;2023-03-16T15:53:27;101089.53;;;16.14;23.93
33414;BME280;60055;41.884;12.534;2023-03-16T15:56:02;101098.25;;;16.00;24.37
33414;BME280;60055;41.884;12.534;2023-03-16T15:58:32;101100.75;;;16.03;24.17
33414;BME280;60055;41.884;12.534;2023-03-16T16:00:59;101100.69;;;16.05;24.71
33414;BME280;60055;41.884;12.534;2023-03-16T16:03:27;101106.72;;;16.08;24.33
33414;BME280;60055;41.884;12.534;2023-03-16T16:05:56;101104.22;;;16.05;25.47
33414;BME280;60055;41.884;12.534;2023-03-16T16:08:23;101108.31;;;15.95;25.86
33414;BME280;60055;41.884;12.534;2023-03-16T16:10:50;101112.34;;;16.02;26.06
33414;BME280;60055;41.884;12.534;2023-03-16T16:13:35;101110.81;;;15.98;26.02
33414;BME280;60055;41.884;12.534;2023-03-16T16:16:01;101107.34;;;15.79;26.81
33414;BME280;60055;41.884;12.534;2023-03-16T16:18:28;101105.50;;;15.81;26.90
33414;BME280;60055;41.884;12.534;2023-03-16T16:20:57;101107.47;;;15.77;27.46
33414;BME280;60055;41.884;12.534;2023-03-16T16:23:24;101112.78;;;15.77;27.28
33414;BME280;60055;41.884;12.534;2023-03-16T16:25:52;101121.09;;;15.71;27.02
33414;BME280;60055;41.884;12.534;2023-03-16T16:28:21;101122.56;;;15.77;27.36
33414;BME280;60055;41.884;12.534;2023-03-16T16:30:47;101125.53;;;15.54;27.61
33414;BME280;60055;41.884;12.534;2023-03-16T16:33:26;101132.34;;;15.59;27.89
33414;BME280;60055;41.884;12.534;2023-03-16T16:35:53;101123.34;;;15.79;30.07
33414;BME280;60055;41.884;12.534;2023-03-16T16:38:20;101136.44;;;15.83;28.41
33414;BME280;60055;41.884;12.534;2023-03-16T16:40:51;101132.72;;;15.86;27.38
33414;BME280;60055;41.884;12.534;2023-03-16T16:45:49;101139.31;;;15.62;27.93
33414;BME280;60055;41.884;12.534;2023-03-16T16:48:47;101153.50;;;15.44;27.76
33414;BME280;60055;41.884;12.534;2023-03-16T16:51:20;101153.47;;;15.26;27.61
33414;BME280;60055;41.884;12.534;2023-03-16T16:53:46;101160.47;;;15.10;28.29
33414;BME280;60055;41.884;12.534;2023-03-16T16:56:13;101156.28;;;15.05;27.91
33414;BME280;60055;41.884;12.534;2023-03-16T16:58:41;101158.88;;;15.06;27.95
33414;BME280;60055;41.884;12.534;2023-03-16T17:01:14;101149.19;;;14.87;28.16
33414;BME280;60055;41.884;12.534;2023-03-16T17:03:43;101163.25;;;14.89;27.72
33414;BME280;60055;41.884;12.534;2023-03-16T17:06:17;101171.09;;;14.92;28.09
33414;BME280;60055;41.884;12.534;2023-03-16T17:08:46;101162.97;;;14.76;28.06
33414;BME280;60055;41.884;12.534;2023-03-16T17:11:17;101169.88;;;14.80;28.82
33414;BME280;60055;41.884;12.534;2023-03-16T17:13:43;101170.22;;;14.72;28.75
33414;BME280;60055;41.884;12.534;2023-03-16T17:16:16;101173.63;;;14.76;28.63
33414;BME280;60055;41.884;12.534;2023-03-16T17:18:52;101177.34;;;14.72;28.33
33414;BME280;60055;41.884;12.534;2023-03-16T17:21:19;101176.97;;;14.61;29.11
33414;BME280;60055;41.884;12.534;2023-03-16T17:23:46;101174.25;;;14.62;28.82
33414;BME280;60055;41.884;12.534;2023-03-16T17:28:42;101181.50;;;14.59;29.62
33414;BME280;60055;41.884;12.534;2023-03-16T17:31:10;101188.66;;;14.57;28.99
33414;BME280;60055;41.884;12.534;2023-03-16T17:33:36;101185.97;;;14.38;28.44
33414;BME280;60055;41.884;12.534;2023-03-16T17:36:01;101196.97;;;14.29;29.11